sensor_id;sensor_type;location;lat;lon;timestamp;pressure;altitude;pressure_sealevel;temperature;humidity
63405;BME280;49541;57.840;12.306;2022-09-21T00:04:58;101564.66;;;5.81;73.84
63405;BME280;49541;57.840;12.306;2022-09-21T00:09:58;101577.97;;;5.80;72.99
63405;BME280;49541;57.840;12.306;2022-09-21T00:14:58;101572.91;;;5.58;74.47
63405;BME280;49541;57.840;12.306;2022-09-21T00:19:58;101566.31;;;5.66;74.90
63405;BME280;49541;57.840;12.306;2022-09-21T00:25:01;101566.91;;;5.37;76.49
63405;BME280;49541;57.840;12.306;2022-09-21T00:30:05;101573.13;;;5.36;76.52
63405;BME280;49541;57.840;12.306;2022-09-21T00:35:05;101570.25;;;6.10;72.49
63405;BME280;49541;57.840;12.306;2022-09-21T00:40:06;101562.72;;;5.85;72.87
63405;BME280;49541;57.840;12.306;2022-09-21T00:45:09;101567.22;;;5.48;74.51
63405;BME280;49541;57.840;12.306;2022-09-21T00:50:21;101571.34;;;5.53;74.49
63405;BME280;49541;57.840;12.306;2022-09-21T01:00:23;101571.28;;;5.72;73.87
63405;BME280;49541;57.840;12.306;2022-09-21T01:05:23;101572.78;;;6.29;70.41
63405;BME280;49541;57.840;12.306;2022-09-21T01:10:24;101571.06;;;5.60;72.81
63405;BME280;49541;57.840;12.306;2022-09-21T01:30:35;101583.22;;;5.27;74.41
63405;BME280;49541;57.840;12.306;2022-09-21T01:35:38;101579.94;;;5.40;73.87
63405;BME280;49541;57.840;12.306;2022-09-21T01:40:41;101577.28;;;4.67;76.28
63405;BME280;49541;57.840;12.306;2022-09-21T01:45:46;101579.47;;;4.76;77.16
63405;BME280;49541;57.840;12.306;2022-09-21T01:50:49;101583.78;;;5.51;72.02
63405;BME280;49541;57.840;12.306;2022-09-21T01:55:51;101580.44;;;5.48;70.92
63405;BME280;49541;57.840;12.306;2022-09-21T02:00:53;101578.19;;;5.58;69.54
63405;BME280;49541;57.840;12.306;2022-09-21T02:05:55;101574.25;;;4.93;71.62
63405;BME280;49541;57.840;12.306;2022-09-21T02:10:56;101582.09;;;4.38;74.28
63405;BME280;49541;57.840;12.306;2022-09-21T02:21:12;101575.56;;;4.07;75.90
63405;BME280;49541;57.840;12.306;2022-09-21T02:26:20;101573.13;;;4.03;77.04
63405;BME280;49541;57.840;12.306;2022-09-21T02:31:30;101570.63;;;4.77;71.60
63405;BME280;49541;57.840;12.306;2022-09-21T02:36:37;101576.63;;;4.62;70.89
63405;BME280;49541;57.840;12.306;2022-09-21T02:41:56;101581.63;;;4.09;74.38
63405;BME280;49541;57.840;12.306;2022-09-21T02:47:02;101586.72;;;4.33;73.69
63405;BME280;49541;57.840;12.306;2022-09-21T02:52:04;101580.28;;;4.20;73.63
63405;BME280;49541;57.840;12.306;2022-09-21T02:57:06;101592.13;;;4.30;73.58
63405;BME280;49541;57.840;12.306;2022-09-21T03:02:08;101589.38;;;4.13;73.94
63405;BME280;49541;57.840;12.306;2022-09-21T03:07:09;101588.72;;;3.66;75.54
63405;BME280;49541;57.840;12.306;2022-09-21T03:12:09;101594.34;;;3.37;77.05
63405;BME280;49541;57.840;12.306;2022-09-21T03:17:09;101596.63;;;3.66;75.96
63405;BME280;49541;57.840;12.306;2022-09-21T03:22:09;101600.09;;;3.67;78.25
63405;BME280;49541;57.840;12.306;2022-09-21T03:27:10;101595.88;;;3.63;77.24
63405;BME280;49541;57.840;12.306;2022-09-21T03:32:10;101597.16;;;3.95;77.48
63405;BME280;49541;57.840;12.306;2022-09-21T03:37:10;101594.13;;;3.84;76.28
63405;BME280;49541;57.840;12.306;2022-09-21T03:42:10;101597.06;;;4.38;73.59
63405;BME280;49541;57.840;12.306;2022-09-21T03:47:12;101594.81;;;4.68;70.04
63405;BME280;49541;57.840;12.306;2022-09-21T03:52:13;101598.47;;;4.05;72.20
63405;BME280;49541;57.840;12.306;2022-09-21T03:57:13;101595.19;;;4.00;72.60
63405;BME280;49541;57.840;12.306;2022-09-21T04:02:14;101601.53;;;3.54;75.29
63405;BME280;49541;57.840;12.306;2022-09-21T04:07:14;101602.69;;;3.89;74.83
63405;BME280;49541;57.840;12.306;2022-09-21T04:12:15;101605.66;;;4.22;74.22
63405;BME280;49541;57.840;12.306;2022-09-21T04:17:15;101599.94;;;3.92;73.76
63405;BME280;49541;57.840;12.306;2022-09-21T04:22:15;101594.66;;;4.13;73.18
63405;BME280;49541;57.840;12.306;2022-09-21T04:27:17;101589.03;;;4.00;72.01
63405;BME280;49541;57.840;12.306;2022-09-21T04:32:17;101596.91;;;3.81;71.52
63405;BME280;49541;57.840;12.306;2022-09-21T04:37:18;101597.50;;;3.87;71.64
63405;BME280;49541;57.840;12.306;2022-09-21T04:42:18;101598.88;;;3.96;70.92
63405;BME280;49541;57.840;12.306;2022-09-21T04:47:18;101597.03;;;5.32;66.98
63405;BME280;49541;57.840;12.306;2022-09-21T04:52:22;101594.03;;;5.40;65.90
63405;BME280;49541;57.840;12.306;2022-09-21T04:57:22;101597.78;;;4.41;68.66
63405;BME280;49541;57.840;12.306;2022-09-21T05:02:22;101602.56;;;3.92;71.87
63405;BME280;49541;57.840;12.306;2022-09-21T05:07:23;101602.44;;;3.75;73.36
63405;BME280;49541;57.840;12.306;2022-09-21T05:12:23;101598.22;;;4.70;69.25
63405;BME280;49541;57.840;12.306;2022-09-21T05:17:23;101601.22;;;5.19;67.71
63405;BME280;49541;57.840;12.306;2022-09-21T05:22:23;101607.94;;;4.69;69.77
63405;BME280;49541;57.840;12.306;2022-09-21T05:27:24;101608.72;;;4.71;70.37
63405;BME280;49541;57.840;12.306;2022-09-21T05:32:26;101612.41;;;4.48;71.63
63405;BME280;49541;57.840;12.306;2022-09-21T05:42:33;101623.19;;;4.63;73.61
63405;BME280;49541;57.840;12.306;2022-09-21T06:03:28;101617.03;;;5.19;74.59
63405;BME280;49541;57.840;12.306;2022-09-21T06:08:28;101621.09;;;5.80;73.65
63405;BME280;49541;57.840;12.306;2022-09-21T06:13:28;101626.66;;;5.57;73.96
63405;BME280;49541;57.840;12.306;2022-09-21T06:18:29;101630.34;;;6.41;72.30
63405;BME280;49541;57.840;12.306;2022-09-21T06:23:29;101630.34;;;7.22;68.88
63405;BME280;49541;57.840;12.306;2022-09-21T06:28:29;101631.16;;;6.75;71.10
63405;BME280;49541;57.840;12.306;2022-09-21T06:33:29;101630.59;;;6.86;71.14
63405;BME280;49541;57.840;12.306;2022-09-21T06:38:30;101635.47;;;6.78;72.25
63405;BME280;49541;57.840;12.306;2022-09-21T06:43:30;101641.78;;;7.23;72.18
63405;BME280;49541;57.840;12.306;2022-09-21T06:48:31;101628.63;;;7.05;73.10
63405;BME280;49541;57.840;12.306;2022-09-21T06:53:32;101634.63;;;7.41;72.76
63405;BME280;49541;57.840;12.306;2022-09-21T06:58:33;101641.00;;;7.68;73.75
63405;BME280;49541;57.840;12.306;2022-09-21T07:03:34;101634.38;;;7.75;74.38
63405;BME280;49541;57.840;12.306;2022-09-21T07:08:34;101642.88;;;7.96;74.54
63405;BME280;49541;57.840;12.306;2022-09-21T07:13:39;101638.34;;;8.57;72.80
63405;BME280;49541;57.840;12.306;2022-09-21T07:18:39;101642.03;;;8.55;73.63
63405;BME280;49541;57.840;12.306;2022-09-21T07:23:40;101639.97;;;9.16;73.15
63405;BME280;49541;57.840;12.306;2022-09-21T07:28:40;101644.41;;;9.57;71.58
63405;BME280;49541;57.840;12.306;2022-09-21T07:33:41;101642.50;;;9.99;71.56
63405;BME280;49541;57.840;12.306;2022-09-21T07:38:42;101645.59;;;9.93;70.16
63405;BME280;49541;57.840;12.306;2022-09-21T07:43:43;101638.94;;;10.51;70.18
63405;BME280;49541;57.840;12.306;2022-09-21T07:48:43;101661.00;;;11.16;67.44
63405;BME280;49541;57.840;12.306;2022-09-21T07:53:43;101656.91;;;11.60;67.48
63405;BME280;49541;57.840;12.306;2022-09-21T07:58:43;101657.66;;;11.62;68.53
63405;BME280;49541;57.840;12.306;2022-09-21T08:04:03;101658.19;;;12.60;64.07
63405;BME280;49541;57.840;12.306;2022-09-21T08:09:04;101657.22;;;12.84;63.86
63405;BME280;49541;57.840;12.306;2022-09-21T08:14:04;101654.31;;;12.87;65.43
63405;BME280;49541;57.840;12.306;2022-09-21T08:19:04;101654.63;;;13.39;64.02
63405;BME280;49541;57.840;12.306;2022-09-21T08:24:05;101649.81;;;13.10;65.89
63405;BME280;49541;57.840;12.306;2022-09-21T08:29:05;101651.31;;;13.79;64.14
63405;BME280;49541;57.840;12.306;2022-09-21T08:34:05;101654.75;;;14.23;64.49
63405;BME280;49541;57.840;12.306;2022-09-21T08:39:06;101649.44;;;14.32;64.33
63405;BME280;49541;57.840;12.306;2022-09-21T08:49:11;101650.66;;;14.70;63.52
63405;BME280;49541;57.840;12.306;2022-09-21T08:54:21;101652.28;;;14.83;64.25
63405;BME280;49541;57.840;12.306;2022-09-21T08:59:22;101649.31;;;14.86;65.13
63405;BME280;49541;57.840;12.306;2022-09-21T09:24:40;101644.00;;;15.85;59.32
63405;BME280;49541;57.840;12.306;2022-09-21T09:29:52;101652.47;;;15.80;59.73
63405;BME280;49541;57.840;12.306;2022-09-21T09:35:06;101648.91;;;16.18;56.95
63405;BME280;49541;57.840;12.306;2022-09-21T09:40:06;101645.03;;;16.50;54.79
63405;BME280;49541;57.840;12.306;2022-09-21T09:55:27;101646.22;;;17.03;50.50
63405;BME280;49541;57.840;12.306;2022-09-21T10:00:34;101651.22;;;17.44;50.16
63405;BME280;49541;57.840;12.306;2022-09-21T10:05:35;101651.06;;;17.27;49.56
63405;BME280;49541;57.840;12.306;2022-09-21T10:10:39;101640.31;;;17.27;49.60
63405;BME280;49541;57.840;12.306;2022-09-21T10:15:49;101643.94;;;17.36;49.56
63405;BME280;49541;57.840;12.306;2022-09-21T10:21:00;101644.31;;;17.95;46.67
63405;BME280;49541;57.840;12.306;2022-09-21T10:26:04;101638.31;;;18.01;41.91
63405;BME280;49541;57.840;12.306;2022-09-21T10:31:11;101637.91;;;18.14;41.74
63405;BME280;49541;57.840;12.306;2022-09-21T10:36:25;101630.56;;;18.50;40.62
63405;BME280;49541;57.840;12.306;2022-09-21T10:41:25;101631.41;;;18.51;41.14
63405;BME280;49541;57.840;12.306;2022-09-21T10:46:32;101630.13;;;18.63;42.22
63405;BME280;49541;57.840;12.306;2022-09-21T10:51:33;101625.69;;;19.47;40.28
63405;BME280;49541;57.840;12.306;2022-09-21T10:56:34;101638.03;;;19.50;40.19
63405;BME280;49541;57.840;12.306;2022-09-21T11:01:34;101651.88;;;18.35;41.97
63405;BME280;49541;57.840;12.306;2022-09-21T11:06:41;101639.72;;;17.51;45.12
63405;BME280;49541;57.840;12.306;2022-09-21T11:11:58;101641.53;;;17.69;49.87
63405;BME280;49541;57.840;12.306;2022-09-21T11:17:29;101639.16;;;17.30;48.05
63405;BME280;49541;57.840;12.306;2022-09-21T11:22:44;101650.03;;;16.83;49.87
63405;BME280;49541;57.840;12.306;2022-09-21T11:27:46;101647.50;;;17.27;48.19
63405;BME280;49541;57.840;12.306;2022-09-21T12:04:00;101650.16;;;19.46;44.05
63405;BME280;49541;57.840;12.306;2022-09-21T12:19:41;101652.03;;;18.94;44.58
63405;BME280;49541;57.840;12.306;2022-09-21T12:24:50;101640.44;;;17.61;48.26
63405;BME280;49541;57.840;12.306;2022-09-21T12:29:52;101639.72;;;17.06;49.10
63405;BME280;49541;57.840;12.306;2022-09-21T12:34:55;101626.06;;;17.17;49.13
63405;BME280;49541;57.840;12.306;2022-09-21T12:39:59;101630.41;;;18.78;45.99
63405;BME280;49541;57.840;12.306;2022-09-21T12:45:03;101631.41;;;20.59;40.40
63405;BME280;49541;57.840;12.306;2022-09-21T12:50:17;101622.50;;;20.17;38.38
63405;BME280;49541;57.840;12.306;2022-09-21T12:55:31;101630.47;;;19.86;39.46
63405;BME280;49541;57.840;12.306;2022-09-21T13:00:36;101622.81;;;19.32;39.91
63405;BME280;49541;57.840;12.306;2022-09-21T13:05:52;101626.81;;;18.77;40.48
63405;BME280;49541;57.840;12.306;2022-09-21T13:11:01;101625.81;;;19.29;40.09
63405;BME280;49541;57.840;12.306;2022-09-21T13:16:08;101629.00;;;19.16;40.50
63405;BME280;49541;57.840;12.306;2022-09-21T13:21:25;101636.06;;;19.84;39.58
63405;BME280;49541;57.840;12.306;2022-09-21T13:26:36;101627.78;;;19.78;40.05
63405;BME280;49541;57.840;12.306;2022-09-21T13:31:39;101625.53;;;20.31;37.62
63405;BME280;49541;57.840;12.306;2022-09-21T13:36:40;101618.53;;;19.13;39.51
63405;BME280;49541;57.840;12.306;2022-09-21T13:41:42;101626.84;;;17.81;42.95
63405;BME280;49541;57.840;12.306;2022-09-21T13:46:47;101621.06;;;17.40;41.86
63405;BME280;49541;57.840;12.306;2022-09-21T13:51:52;101623.78;;;18.46;42.22
63405;BME280;49541;57.840;12.306;2022-09-21T13:57:00;101625.66;;;18.54;43.34
63405;BME280;49541;57.840;12.306;2022-09-21T14:02:02;101620.44;;;18.18;44.16
63405;BME280;49541;57.840;12.306;2022-09-21T14:07:08;101616.75;;;17.29;46.02
63405;BME280;49541;57.840;12.306;2022-09-21T14:12:10;101621.13;;;16.85;48.42
63405;BME280;49541;57.840;12.306;2022-09-21T14:17:33;101618.84;;;16.90;49.02
63405;BME280;49541;57.840;12.306;2022-09-21T14:22:35;101607.00;;;17.64;46.68
63405;BME280;49541;57.840;12.306;2022-09-21T14:27:41;101607.38;;;17.87;46.25
63405;BME280;49541;57.840;12.306;2022-09-21T14:32:49;101602.88;;;18.74;45.08
63405;BME280;49541;57.840;12.306;2022-09-21T14:37:55;101603.50;;;18.68;44.20
63405;BME280;49541;57.840;12.306;2022-09-21T14:42:57;101599.44;;;18.64;43.98
63405;BME280;49541;57.840;12.306;2022-09-21T14:48:07;101601.63;;;17.82;45.71
63405;BME280;49541;57.840;12.306;2022-09-21T15:08:44;101585.22;;;16.38;50.71
63405;BME280;49541;57.840;12.306;2022-09-21T15:19:25;101590.88;;;15.88;53.00
63405;BME280;49541;57.840;12.306;2022-09-21T15:29:27;101596.50;;;16.05;53.85
63405;BME280;49541;57.840;12.306;2022-09-21T15:34:28;101587.06;;;16.38;52.89
63405;BME280;49541;57.840;12.306;2022-09-21T15:39:29;101582.84;;;16.35;52.53
63405;BME280;49541;57.840;12.306;2022-09-21T15:44:31;101584.94;;;16.42;52.59
63405;BME280;49541;57.840;12.306;2022-09-21T15:49:32;101588.38;;;16.62;52.47
63405;BME280;49541;57.840;12.306;2022-09-21T15:59:32;101590.41;;;16.77;52.48
63405;BME280;49541;57.840;12.306;2022-09-21T16:04:33;101587.72;;;16.77;52.67
63405;BME280;49541;57.840;12.306;2022-09-21T16:14:45;101595.84;;;16.68;52.78
63405;BME280;49541;57.840;12.306;2022-09-21T16:24:59;101594.34;;;16.18;54.87
63405;BME280;49541;57.840;12.306;2022-09-21T16:29:59;101592.84;;;15.86;56.27
63405;BME280;49541;57.840;12.306;2022-09-21T16:40:18;101593.66;;;16.53;54.52
63405;BME280;49541;57.840;12.306;2022-09-21T16:45:21;101608.16;;;16.70;54.75
63405;BME280;49541;57.840;12.306;2022-09-21T16:50:23;101615.75;;;16.85;54.27
63405;BME280;49541;57.840;12.306;2022-09-21T16:55:23;101610.53;;;16.73;54.15
63405;BME280;49541;57.840;12.306;2022-09-21T17:00:23;101609.56;;;16.65;54.17
63405;BME280;49541;57.840;12.306;2022-09-21T17:05:24;101615.06;;;16.73;53.87
63405;BME280;49541;57.840;12.306;2022-09-21T17:10:27;101613.06;;;16.75;53.84
63405;BME280;49541;57.840;12.306;2022-09-21T17:15:28;101603.69;;;16.51;53.90
63405;BME280;49541;57.840;12.306;2022-09-21T17:20:35;101612.97;;;16.67;53.50
63405;BME280;49541;57.840;12.306;2022-09-21T17:25:36;101614.56;;;16.22;54.39
63405;BME280;49541;57.840;12.306;2022-09-21T17:30:36;101615.84;;;16.18;54.64
63405;BME280;49541;57.840;12.306;2022-09-21T17:35:37;101607.69;;;15.90;54.96
63405;BME280;49541;57.840;12.306;2022-09-21T17:40:38;101623.25;;;15.77;55.48
63405;BME280;49541;57.840;12.306;2022-09-21T17:45:59;101611.59;;;15.57;56.00
63405;BME280;49541;57.840;12.306;2022-09-21T17:51:02;101616.41;;;15.63;55.85
63405;BME280;49541;57.840;12.306;2022-09-21T18:01:25;101621.34;;;15.39;56.46
63405;BME280;49541;57.840;12.306;2022-09-21T18:06:28;101611.84;;;15.25;56.63
63405;BME280;49541;57.840;12.306;2022-09-21T18:27:25;101611.88;;;14.65;58.27
63405;BME280;49541;57.840;12.306;2022-09-21T18:42:58;101619.53;;;14.27;58.43
63405;BME280;49541;57.840;12.306;2022-09-21T18:53:30;101623.19;;;13.84;59.41
63405;BME280;49541;57.840;12.306;2022-09-21T18:58:33;101623.50;;;13.70;59.43
63405;BME280;49541;57.840;12.306;2022-09-21T19:03:33;101619.97;;;13.69;59.63
63405;BME280;49541;57.840;12.306;2022-09-21T19:08:53;101619.97;;;13.37;60.18
63405;BME280;49541;57.840;12.306;2022-09-21T19:24:05;101624.34;;;13.27;59.26
63405;BME280;49541;57.840;12.306;2022-09-21T19:34:18;101628.06;;;12.92;59.96
63405;BME280;49541;57.840;12.306;2022-09-21T19:39:19;101628.56;;;12.75;60.33
63405;BME280;49541;57.840;12.306;2022-09-21T19:44:23;101625.28;;;12.60;60.58
63405;BME280;49541;57.840;12.306;2022-09-21T19:54:47;101617.34;;;12.13;62.08
63405;BME280;49541;57.840;12.306;2022-09-21T20:00:10;101624.72;;;11.98;62.30
63405;BME280;49541;57.840;12.306;2022-09-21T20:05:13;101626.50;;;11.98;61.71
63405;BME280;49541;57.840;12.306;2022-09-21T20:12:21;101624.72;;;11.74;61.71
63405;BME280;49541;57.840;12.306;2022-09-21T20:17:29;101630.00;;;11.63;62.09
63405;BME280;49541;57.840;12.306;2022-09-21T20:22:33;101621.72;;;11.55;62.32
63405;BME280;49541;57.840;12.306;2022-09-21T20:32:38;101619.16;;;11.29;62.30
63405;BME280;49541;57.840;12.306;2022-09-21T20:37:39;101623.59;;;11.17;62.69
63405;BME280;49541;57.840;12.306;2022-09-21T20:42:39;101616.81;;;11.00;62.53
63405;BME280;49541;57.840;12.306;2022-09-21T20:47:40;101615.38;;;10.71;63.83
63405;BME280;49541;57.840;12.306;2022-09-21T20:52:40;101616.69;;;10.65;63.18
63405;BME280;49541;57.840;12.306;2022-09-21T20:57:41;101627.03;;;10.57;63.14
63405;BME280;49541;57.840;12.306;2022-09-21T21:02:42;101624.28;;;10.45;63.49
63405;BME280;49541;57.840;12.306;2022-09-21T21:07:42;101625.19;;;10.19;63.98
63405;BME280;49541;57.840;12.306;2022-09-21T21:12:42;101613.03;;;10.15;64.15
63405;BME280;49541;57.840;12.306;2022-09-21T21:17:43;101612.19;;;10.14;63.88
63405;BME280;49541;57.840;12.306;2022-09-21T21:22:48;101601.09;;;9.95;64.20
63405;BME280;49541;57.840;12.306;2022-09-21T21:27:48;101605.34;;;9.97;63.88
63405;BME280;49541;57.840;12.306;2022-09-21T21:32:49;101594.91;;;9.81;63.86
63405;BME280;49541;57.840;12.306;2022-09-21T21:37:51;101593.41;;;9.64;64.43
63405;BME280;49541;57.840;12.306;2022-09-21T21:42:51;101599.06;;;9.46;64.85
63405;BME280;49541;57.840;12.306;2022-09-21T21:47:53;101604.34;;;9.60;63.97
63405;BME280;49541;57.840;12.306;2022-09-21T21:52:56;101606.88;;;9.49;64.55
63405;BME280;49541;57.840;12.306;2022-09-21T21:57:56;101603.53;;;9.45;64.39
63405;BME280;49541;57.840;12.306;2022-09-21T22:02:56;101603.69;;;9.56;63.92
63405;BME280;49541;57.840;12.306;2022-09-21T22:07:56;101602.13;;;9.39;64.08
63405;BME280;49541;57.840;12.306;2022-09-21T22:12:56;101599.03;;;9.33;63.29
63405;BME280;49541;57.840;12.306;2022-09-21T22:17:57;101593.63;;;9.34;63.18
63405;BME280;49541;57.840;12.306;2022-09-21T22:22:57;101595.91;;;9.26;64.00
63405;BME280;49541;57.840;12.306;2022-09-21T22:27:57;101592.75;;;9.07;64.40
63405;BME280;49541;57.840;12.306;2022-09-21T22:32:58;101591.84;;;8.93;65.28
63405;BME280;49541;57.840;12.306;2022-09-21T22:37:59;101584.25;;;9.01;65.10
63405;BME280;49541;57.840;12.306;2022-09-21T22:43:00;101586.69;;;9.05;65.45
63405;BME280;49541;57.840;12.306;2022-09-21T22:48:00;101590.34;;;8.89;66.57
63405;BME280;49541;57.840;12.306;2022-09-21T22:53:00;101587.16;;;8.55;67.16
63405;BME280;49541;57.840;12.306;2022-09-21T22:58:02;101592.06;;;8.61;67.19
63405;BME280;49541;57.840;12.306;2022-09-21T23:03:02;101582.75;;;8.40;67.75
63405;BME280;49541;57.840;12.306;2022-09-21T23:08:03;101580.13;;;8.54;66.87
63405;BME280;49541;57.840;12.306;2022-09-21T23:13:03;101571.59;;;8.78;66.10
63405;BME280;49541;57.840;12.306;2022-09-21T23:18:03;101576.44;;;8.71;65.93
63405;BME280;49541;57.840;12.306;2022-09-21T23:23:03;101584.22;;;8.46;66.25
63405;BME280;49541;57.840;12.306;2022-09-21T23:28:04;101580.09;;;8.26;66.87
63405;BME280;49541;57.840;12.306;2022-09-21T23:33:04;101576.88;;;8.20;67.29
63405;BME280;49541;57.840;12.306;2022-09-21T23:38:04;101570.03;;;8.02;67.43
63405;BME280;49541;57.840;12.306;2022-09-21T23:43:04;101566.44;;;8.03;67.40
63405;BME280;49541;57.840;12.306;2022-09-21T23:48:05;101568.53;;;8.12;66.72
63405;BME280;49541;57.840;12.306;2022-09-21T23:53:05;101557.28;;;8.09;66.82
63405;BME280;49541;57.840;12.306;2022-09-21T23:58:05;101552.78;;;7.95;66.75
